Terminal Aerodrome Forecast
Issued by NWS Atlanta, GA

Home | Current Version | Previous Version | Text Only | Print | Product List | Glossary On
Versions: 1 2 3 4 5 6 7 8 9 10 11 12 13 14 15 16 17
000
FTUS42 KFFC 182300 RRA
TAFCSG
TAF
KCSG 182341Z 1900/1924 11003KT P6SM SCT045
     FM190300 00000KT P6SM FEW050 SCT150
     FM191100 09003KT P6SM BKN015
     FM191600 11005KT P6SM SCT040=

USA.gov is the U.S. government's official web portal to all federal, state and local government web resources and services.